Time;durP1;ratioP1;P1;durP2;ratioP2;P2;SDS_P1;SDS_P2;PMS_P1;PMS_P2;Temp;Humidity;BMP_temperature;BMP_pressure;BME280_temperature;BME280_humidity;BME280_pressure;Samples;Min_cycle;Max_cycle;Signal;HPM_P1;HPM_P2
2023/06/23 00:00:20;;;;;;;7.07;6.57;;;18.20;99.90;;;;;;4999388;28;20896;-59
2023/06/23 00:02:49;;;;;;;7.03;6.50;;;18.20;99.90;;;;;;4990754;28;20484;-58
2023/06/23 00:05:17;;;;;;;6.90;6.37;;;18.20;99.90;;;;;;4998156;28;20496;-58
2023/06/23 00:07:45;;;;;;;6.73;6.23;;;18.10;99.90;;;;;;5000838;28;20556;-58
2023/06/23 00:10:14;;;;;;;6.70;6.13;;;18.10;99.90;;;;;;4992479;28;20472;-58
2023/06/23 00:12:42;;;;;;;6.67;6.07;;;18.10;99.90;;;;;;5002860;28;20489;-58
2023/06/23 00:15:12;;;;;;;6.70;6.20;;;18.10;99.90;;;;;;4998772;28;20532;-58
2023/06/23 00:17:46;;;;;;;7.50;6.87;;;18.10;99.90;;;;;;5002508;28;20527;-59
2023/06/23 00:20:14;;;;;;;6.57;6.07;;;18.10;99.90;;;;;;5002163;28;20896;-59
2023/06/23 00:22:43;;;;;;;7.13;6.53;;;18.10;99.90;;;;;;5000972;28;20535;-58
2023/06/23 00:25:13;;;;;;;7.30;6.57;;;18.10;99.90;;;;;;4997944;28;20528;-58
2023/06/23 00:27:45;;;;;;;7.40;6.80;;;18.00;99.90;;;;;;4993051;28;20491;-58
2023/06/23 00:30:14;;;;;;;6.23;5.73;;;18.00;99.90;;;;;;4997386;28;20511;-58
2023/06/23 00:32:44;;;;;;;7.20;6.33;;;18.00;99.90;;;;;;4992781;28;20511;-58
2023/06/23 00:35:13;;;;;;;8.70;7.20;;;18.00;99.90;;;;;;4999933;28;20553;-59
2023/06/23 00:37:43;;;;;;;7.87;7.10;;;18.00;99.90;;;;;;4998116;28;20479;-59
2023/06/23 00:40:11;;;;;;;8.00;7.30;;;18.00;99.90;;;;;;4997381;28;21055;-58
2023/06/23 00:42:46;;;;;;;7.77;7.17;;;18.00;99.90;;;;;;4993734;28;20496;-58
2023/06/23 00:45:15;;;;;;;7.17;6.57;;;18.00;99.90;;;;;;4993451;28;20518;-58
2023/06/23 00:47:45;;;;;;;7.87;7.27;;;18.00;99.90;;;;;;4995847;28;20478;-58
2023/06/23 00:50:16;;;;;;;8.97;8.10;;;17.90;99.90;;;;;;4991110;28;21017;-58
2023/06/23 00:52:49;;;;;;;8.60;7.90;;;17.90;99.90;;;;;;4994643;28;20543;-59
2023/06/23 00:55:20;;;;;;;7.73;7.03;;;17.90;99.90;;;;;;4998459;28;20503;-58
2023/06/23 00:57:48;;;;;;;8.97;8.07;;;17.90;99.90;;;;;;4992690;28;20472;-58
2023/06/23 01:00:18;;;;;;;8.23;7.47;;;17.90;99.90;;;;;;4997698;28;21243;-58
2023/06/23 01:02:49;;;;;;;7.90;7.20;;;17.90;99.90;;;;;;5007880;28;20480;-58
2023/06/23 01:05:19;;;;;;;8.20;7.50;;;17.90;99.90;;;;;;5003989;28;20523;-58
2023/06/23 01:08:03;;;;;;;8.67;7.70;;;17.90;99.90;;;;;;4992080;28;20477;-58
2023/06/23 01:10:36;;;;;;;8.37;7.60;;;17.90;99.90;;;;;;4993775;28;21219;-58
2023/06/23 01:13:14;;;;;;;8.03;7.33;;;17.80;99.90;;;;;;4993532;28;20499;-58
2023/06/23 01:15:50;;;;;;;8.90;8.07;;;17.80;99.90;;;;;;4997059;28;20494;-58
2023/06/23 01:18:27;;;;;;;8.13;7.43;;;17.80;99.90;;;;;;4998541;28;20559;-58
2023/06/23 01:21:01;;;;;;;7.97;7.30;;;17.80;99.90;;;;;;4989783;28;20982;-59
2023/06/23 01:23:47;;;;;;;9.00;8.20;;;17.90;99.90;;;;;;4992669;28;20469;-58
2023/06/23 01:26:34;;;;;;;8.77;8.07;;;17.90;99.90;;;;;;4995838;28;20473;-58
2023/06/23 01:29:07;;;;;;;8.47;7.80;;;17.80;99.90;;;;;;4991847;28;20985;-58
2023/06/23 01:31:43;;;;;;;7.67;7.07;;;17.80;99.90;;;;;;4990296;28;20489;-58
2023/06/23 01:34:20;;;;;;;8.63;7.90;;;17.70;99.90;;;;;;4995452;28;20491;-58
2023/06/23 01:36:53;;;;;;;8.43;7.70;;;17.70;99.90;;;;;;4996375;28;20511;-58
2023/06/23 01:39:22;;;;;;;8.77;8.00;;;17.80;99.90;;;;;;4996508;28;20548;-58
2023/06/23 01:41:56;;;;;;;8.30;7.60;;;17.80;99.90;;;;;;4995270;28;21022;-58
2023/06/23 01:44:29;;;;;;;8.30;7.50;;;17.80;99.90;;;;;;4993566;28;20615;-58
2023/06/23 01:47:00;;;;;;;9.00;8.20;;;17.80;99.90;;;;;;4996907;28;20464;-58
2023/06/23 01:49:36;;;;;;;8.40;7.70;;;17.70;99.90;;;;;;4990495;28;21003;-58
2023/06/23 01:52:06;;;;;;;7.40;6.80;;;17.70;99.90;;;;;;4990441;28;20865;-58
2023/06/23 01:54:39;;;;;;;8.90;8.10;;;17.60;99.90;;;;;;4997253;28;21022;-58
2023/06/23 01:57:08;;;;;;;8.17;7.57;;;17.60;99.90;;;;;;4994952;28;20580;-58
2023/06/23 01:59:39;;;;;;;7.90;7.20;;;17.60;99.90;;;;;;4997557;28;20559;-58
2023/06/23 02:02:10;;;;;;;7.37;6.80;;;17.60;99.90;;;;;;4989134;28;20575;-58
2023/06/23 02:04:40;;;;;;;7.33;6.77;;;17.60;99.90;;;;;;4997330;28;20487;-58
2023/06/23 02:07:10;;;;;;;7.10;6.53;;;17.60;99.90;;;;;;4994126;28;20468;-58
2023/06/23 02:09:40;;;;;;;6.67;6.17;;;17.60;99.90;;;;;;4993970;28;20584;-58
2023/06/23 02:12:10;;;;;;;7.67;6.90;;;17.60;99.90;;;;;;4997514;28;20550;-58
2023/06/23 02:14:41;;;;;;;7.40;6.70;;;17.50;99.90;;;;;;4997948;28;20497;-58
2023/06/23 02:17:10;;;;;;;6.90;6.30;;;17.50;99.90;;;;;;4995764;28;20478;-58
2023/06/23 02:19:42;;;;;;;8.00;7.10;;;17.40;99.90;;;;;;4996442;28;20897;-58
2023/06/23 02:22:11;;;;;;;7.57;6.97;;;17.40;99.90;;;;;;4990615;28;20495;-58
2023/06/23 02:24:40;;;;;;;7.97;7.23;;;17.40;99.90;;;;;;4985651;28;20492;-58
2023/06/23 02:27:09;;;;;;;7.60;7.00;;;17.40;99.90;;;;;;4990070;28;20468;-58
2023/06/23 02:29:41;;;;;;;7.73;7.13;;;17.30;99.90;;;;;;4991337;28;20492;-58
2023/06/23 02:32:17;;;;;;;7.43;6.77;;;17.30;99.90;;;;;;4988820;28;20496;-58
2023/06/23 02:34:46;;;;;;;6.87;6.30;;;17.30;99.90;;;;;;4990011;28;20488;-58
2023/06/23 02:37:21;;;;;;;7.40;6.80;;;17.30;99.90;;;;;;4987127;28;20464;-58
2023/06/23 02:39:54;;;;;;;5.90;5.40;;;17.30;99.90;;;;;;4993722;28;21155;-58
2023/06/23 02:42:26;;;;;;;6.20;5.70;;;17.20;99.90;;;;;;4995748;28;20582;-59
2023/06/23 02:45:00;;;;;;;6.00;5.50;;;17.20;99.90;;;;;;4993483;28;20532;-59
2023/06/23 02:47:30;;;;;;;5.77;5.27;;;17.20;99.90;;;;;;4990516;28;20497;-59
2023/06/23 02:50:03;;;;;;;5.73;5.23;;;17.20;99.90;;;;;;4992253;28;20496;-59
2023/06/23 02:52:35;;;;;;;5.80;5.30;;;17.10;99.90;;;;;;4996478;28;20952;-58
2023/06/23 02:55:08;;;;;;;5.77;5.27;;;17.10;99.90;;;;;;4995970;28;20563;-58
2023/06/23 02:57:38;;;;;;;5.53;5.13;;;17.10;99.90;;;;;;4999124;28;20647;-58
2023/06/23 03:00:13;;;;;;;6.00;5.40;;;17.10;99.90;;;;;;4993743;28;20971;-57
2023/06/23 03:02:43;;;;;;;6.10;5.60;;;17.00;99.90;;;;;;4991527;28;21141;-59
2023/06/23 03:05:11;;;;;;;7.37;5.33;;;17.00;99.90;;;;;;4999360;28;20542;-58
2023/06/23 03:07:39;;;;;;;8.20;5.30;;;17.00;99.90;;;;;;4997266;28;20531;-58
2023/06/23 03:10:08;;;;;;;5.47;5.07;;;17.00;99.90;;;;;;4996432;28;21017;-58
2023/06/23 03:12:36;;;;;;;6.33;5.83;;;17.00;99.90;;;;;;4999289;28;20484;-59
2023/06/23 03:15:05;;;;;;;6.77;6.27;;;17.00;99.90;;;;;;4999939;28;20496;-61
2023/06/23 03:17:38;;;;;;;6.20;5.70;;;17.00;99.90;;;;;;4990596;28;20481;-58
2023/06/23 03:20:10;;;;;;;5.70;5.27;;;17.00;99.90;;;;;;4992167;28;20465;-58
2023/06/23 03:22:42;;;;;;;6.17;5.60;;;17.00;99.90;;;;;;4998251;28;20521;-58
2023/06/23 03:25:14;;;;;;;6.57;6.07;;;17.00;99.90;;;;;;4998641;28;21056;-58
2023/06/23 03:27:45;;;;;;;6.03;5.53;;;16.90;99.90;;;;;;4992528;28;20539;-58
2023/06/23 03:30:19;;;;;;;6.10;5.50;;;16.90;99.90;;;;;;4994936;28;20907;-58
2023/06/23 03:32:51;;;;;;;6.70;5.27;;;16.90;99.90;;;;;;4998481;28;20855;-59
2023/06/23 03:35:23;;;;;;;5.50;5.00;;;16.90;99.90;;;;;;5000156;28;20496;-58
2023/06/23 03:37:55;;;;;;;6.03;5.53;;;16.80;99.90;;;;;;5004329;28;20499;-59
2023/06/23 03:40:26;;;;;;;6.10;5.37;;;16.80;99.90;;;;;;5009044;28;20559;-58
2023/06/23 03:42:57;;;;;;;5.47;5.03;;;16.80;99.90;;;;;;4998694;28;20951;-59
2023/06/23 03:45:27;;;;;;;5.40;5.00;;;16.80;99.90;;;;;;4996391;28;20496;-58
2023/06/23 03:48:02;;;;;;;5.63;5.20;;;16.80;99.90;;;;;;4993082;28;20491;-58
2023/06/23 03:50:34;;;;;;;6.07;5.57;;;16.80;99.90;;;;;;4997082;28;20507;-58
2023/06/23 03:53:04;;;;;;;5.73;5.23;;;16.80;99.90;;;;;;5000761;28;20534;-58
2023/06/23 03:55:34;;;;;;;6.03;5.53;;;16.80;99.90;;;;;;5003661;28;20588;-59
2023/06/23 03:58:06;;;;;;;5.43;5.03;;;16.70;99.90;;;;;;5000331;28;20563;-58
2023/06/23 04:00:37;;;;;;;5.77;5.27;;;16.70;99.90;;;;;;5000062;28;20496;-58
2023/06/23 04:03:08;;;;;;;5.80;5.30;;;16.70;99.90;;;;;;4997201;28;20483;-58
2023/06/23 04:05:40;;;;;;;5.97;5.47;;;16.80;99.90;;;;;;4996164;28;20520;-58
2023/06/23 04:08:11;;;;;;;5.70;5.00;;;16.80;99.90;;;;;;4992071;28;20782;-58
2023/06/23 04:10:39;;;;;;;7.00;5.23;;;16.80;99.90;;;;;;4999757;28;20580;-57
2023/06/23 04:13:09;;;;;;;5.10;4.70;;;16.80;99.90;;;;;;5003970;28;20504;-58
2023/06/23 04:15:38;;;;;;;5.63;5.23;;;16.80;99.90;;;;;;5004506;28;20551;-57
2023/06/23 04:18:11;;;;;;;6.27;5.77;;;16.80;99.90;;;;;;5000290;28;20607;-58
2023/06/23 04:20:41;;;;;;;5.57;5.00;;;16.80;99.90;;;;;;4996316;28;20460;-56
2023/06/23 04:23:10;;;;;;;5.73;5.33;;;16.80;99.90;;;;;;4996598;28;20812;-57
2023/06/23 04:25:40;;;;;;;5.80;5.30;;;16.80;99.90;;;;;;4994115;28;20494;-58
2023/06/23 04:28:12;;;;;;;5.60;5.20;;;16.80;99.90;;;;;;4994209;28;20499;-58
2023/06/23 04:30:41;;;;;;;5.90;5.40;;;16.80;99.90;;;;;;4988992;28;20760;-57
2023/06/23 04:33:11;;;;;;;5.83;5.40;;;16.90;99.90;;;;;;4996270;28;20591;-58
2023/06/23 04:35:39;;;;;;;5.43;5.03;;;16.90;99.90;;;;;;4993401;28;20601;-58
2023/06/23 04:38:12;;;;;;;5.60;5.20;;;16.90;99.90;;;;;;4997117;28;20463;-58
2023/06/23 04:40:42;;;;;;;5.50;5.00;;;16.90;99.90;;;;;;4986452;28;20870;-57
2023/06/23 04:43:13;;;;;;;6.00;5.57;;;16.90;99.90;;;;;;4986837;28;20504;-58
2023/06/23 04:45:46;;;;;;;6.37;4.93;;;16.90;99.90;;;;;;4990125;28;20488;-58
2023/06/23 04:48:20;;;;;;;5.47;4.97;;;16.90;99.90;;;;;;4991626;28;20513;-57
2023/06/23 04:50:50;;;;;;;5.27;4.87;;;16.90;99.90;;;;;;4988363;28;20608;-58
2023/06/23 04:53:21;;;;;;;6.23;5.73;;;16.90;99.90;;;;;;4995047;28;20563;-57
2023/06/23 04:55:54;;;;;;;5.90;5.40;;;16.90;99.90;;;;;;4993215;28;20903;-57
2023/06/23 04:58:26;;;;;;;5.80;5.20;;;16.80;99.90;;;;;;4997689;28;20503;-57
2023/06/23 05:00:55;;;;;;;5.60;4.97;;;16.80;99.90;;;;;;4990870;28;20835;-58
2023/06/23 05:03:27;;;;;;;5.47;5.07;;;16.80;99.90;;;;;;4988154;28;20475;-61
2023/06/23 05:05:57;;;;;;;6.13;5.53;;;16.80;99.90;;;;;;4993928;28;20551;-60
2023/06/23 05:08:28;;;;;;;5.67;4.93;;;16.90;99.90;;;;;;4990529;28;20483;-57
2023/06/23 05:10:59;;;;;;;7.50;5.50;;;16.90;99.90;;;;;;4983337;28;20498;-58
2023/06/23 05:13:29;;;;;;;5.63;5.13;;;16.90;99.90;;;;;;4992502;28;20476;-57
2023/06/23 05:15:58;;;;;;;6.13;5.53;;;16.90;99.90;;;;;;4988202;28;20498;-57
2023/06/23 05:18:29;;;;;;;6.50;6.00;;;16.90;99.90;;;;;;4982185;28;20483;-57
2023/06/23 05:21:00;;;;;;;5.40;4.90;;;16.80;99.90;;;;;;4988789;28;20880;-56
2023/06/23 05:23:29;;;;;;;5.97;5.43;;;16.80;99.90;;;;;;4966671;28;20476;-57
2023/06/23 05:26:16;;;;;;;6.03;5.47;;;16.90;99.90;;;;;;4990603;28;20552;-57
2023/06/23 05:28:47;;;;;;;6.83;6.23;;;16.90;99.90;;;;;;4994114;28;20840;-57
2023/06/23 05:31:17;;;;;;;6.60;6.00;;;16.90;99.90;;;;;;4996324;28;20519;-58
2023/06/23 05:33:49;;;;;;;7.30;6.60;;;17.00;99.90;;;;;;4975555;28;20484;-57
2023/06/23 05:36:18;;;;;;;6.50;5.90;;;17.00;99.90;;;;;;4986938;28;20480;-57
2023/06/23 05:38:48;;;;;;;6.40;5.80;;;17.00;99.90;;;;;;4988087;28;20487;-58
2023/06/23 05:41:17;;;;;;;6.60;6.00;;;17.00;99.90;;;;;;4974458;28;20499;-57
2023/06/23 05:43:45;;;;;;;6.50;5.57;;;17.00;99.90;;;;;;4986324;28;20480;-58
2023/06/23 05:46:17;;;;;;;6.57;5.97;;;17.10;99.90;;;;;;4982845;28;20468;-58
2023/06/23 05:48:52;;;;;;;6.87;6.20;;;17.10;99.90;;;;;;4980106;28;20989;-58
2023/06/23 05:51:25;;;;;;;6.97;6.27;;;17.20;99.90;;;;;;4993548;28;20499;-58
2023/06/23 05:53:56;;;;;;;7.47;6.77;;;17.20;99.90;;;;;;4996246;28;20476;-57
2023/06/23 05:56:35;;;;;;;7.07;6.50;;;17.20;99.90;;;;;;4986092;28;20474;-57
2023/06/23 05:59:08;;;;;;;7.00;6.40;;;17.20;99.90;;;;;;4993912;28;21367;-58
2023/06/23 06:01:41;;;;;;;6.90;6.30;;;17.20;99.90;;;;;;4984430;28;20488;-57
2023/06/23 06:04:14;;;;;;;7.80;6.00;;;17.30;99.90;;;;;;4994099;28;20488;-57
2023/06/23 06:06:45;;;;;;;7.27;6.60;;;17.30;99.90;;;;;;4990855;28;20489;-58
2023/06/23 06:09:14;;;;;;;6.30;5.70;;;17.30;99.90;;;;;;4996615;28;20468;-57
2023/06/23 06:11:45;;;;;;;6.90;6.30;;;17.40;99.90;;;;;;4994909;28;20590;-58
2023/06/23 06:14:14;;;;;;;9.87;7.90;;;17.40;99.90;;;;;;4992605;28;20838;-58
2023/06/23 06:16:44;;;;;;;7.27;6.63;;;17.40;99.90;;;;;;4991714;28;20472;-58
2023/06/23 06:19:15;;;;;;;7.87;7.17;;;17.50;99.90;;;;;;4997810;28;20550;-58
2023/06/23 06:21:44;;;;;;;9.50;7.20;;;17.60;99.90;;;;;;4994753;28;20481;-58
2023/06/23 06:24:14;;;;;;;11.33;7.83;;;17.60;99.90;;;;;;4992567;28;20484;-58
2023/06/23 06:26:44;;;;;;;8.40;7.60;;;17.60;99.90;;;;;;4994487;28;20556;-58
2023/06/23 06:29:15;;;;;;;8.57;7.77;;;17.70;99.90;;;;;;4984377;28;20563;-58
2023/06/23 06:31:45;;;;;;;8.57;7.67;;;17.80;99.90;;;;;;4990682;28;22032;-58
2023/06/23 06:34:16;;;;;;;8.63;7.80;;;17.80;99.90;;;;;;4995001;28;20581;-58
2023/06/23 06:36:45;;;;;;;8.80;8.00;;;17.80;99.90;;;;;;4988871;28;20592;-58
2023/06/23 06:39:14;;;;;;;9.00;7.57;;;17.80;99.90;;;;;;4985324;28;21086;-58
2023/06/23 06:41:45;;;;;;;8.63;7.93;;;17.80;99.90;;;;;;4996720;28;20484;-58
2023/06/23 06:44:13;;;;;;;9.43;8.53;;;17.80;99.90;;;;;;4991630;28;20555;-58
2023/06/23 06:46:43;;;;;;;9.03;8.30;;;17.80;99.90;;;;;;4989810;28;20552;-60
2023/06/23 06:49:13;;;;;;;8.73;8.03;;;17.90;99.90;;;;;;4992793;28;20472;-58
2023/06/23 06:51:45;;;;;;;10.37;9.37;;;17.90;99.90;;;;;;5001445;28;20557;-58
2023/06/23 06:54:13;;;;;;;12.87;9.27;;;17.90;99.90;;;;;;5014033;28;20491;-58
2023/06/23 06:56:43;;;;;;;13.27;9.97;;;17.90;99.90;;;;;;5004582;28;21039;-57
2023/06/23 06:59:11;;;;;;;10.90;9.90;;;17.90;99.90;;;;;;5003537;28;21214;-58
2023/06/23 07:01:41;;;;;;;11.37;10.17;;;18.00;99.90;;;;;;5013751;28;20488;-58
2023/06/23 07:04:10;;;;;;;11.60;9.37;;;18.00;99.90;;;;;;5005290;28;20515;-58
2023/06/23 07:06:40;;;;;;;10.50;9.60;;;18.00;99.90;;;;;;5007160;28;20496;-58
2023/06/23 07:09:09;;;;;;;10.57;9.67;;;18.00;99.90;;;;;;5011357;28;20526;-57
2023/06/23 07:11:37;;;;;;;9.70;8.90;;;18.00;99.90;;;;;;5006905;28;20505;-58
2023/06/23 07:14:05;;;;;;;10.50;9.60;;;18.10;99.90;;;;;;5012332;28;20600;-58
2023/06/23 07:16:34;;;;;;;9.43;8.53;;;18.10;99.90;;;;;;5008509;28;20468;-58
2023/06/23 07:19:01;;;;;;;10.80;9.63;;;18.10;99.90;;;;;;5004189;28;20609;-58
2023/06/23 07:21:29;;;;;;;10.13;9.23;;;18.10;99.90;;;;;;5005559;28;20504;-57
2023/06/23 07:23:57;;;;;;;11.37;9.93;;;18.20;99.90;;;;;;5003568;28;20516;-57
2023/06/23 07:26:27;;;;;;;10.80;9.80;;;18.20;99.90;;;;;;4999699;28;20500;-57
2023/06/23 07:28:55;;;;;;;10.57;9.67;;;18.20;99.90;;;;;;5002182;28;20539;-57
2023/06/23 07:31:25;;;;;;;11.30;9.73;;;18.20;99.90;;;;;;5006024;28;20520;-57
2023/06/23 07:33:53;;;;;;;10.60;9.60;;;18.20;99.90;;;;;;4997768;28;20492;-58
2023/06/23 07:36:21;;;;;;;10.57;9.77;;;18.20;99.90;;;;;;4989243;28;20534;-58
2023/06/23 07:38:49;;;;;;;10.73;9.80;;;18.20;99.90;;;;;;4984628;28;20481;-57
2023/06/23 07:41:17;;;;;;;10.27;9.37;;;18.30;99.90;;;;;;4984950;28;22144;-58
2023/06/23 07:43:47;;;;;;;11.97;10.77;;;18.30;99.90;;;;;;4987971;28;20552;-58
2023/06/23 07:46:15;;;;;;;12.47;11.47;;;18.40;99.90;;;;;;4990970;28;20916;-59
2023/06/23 07:48:43;;;;;;;12.17;11.07;;;18.40;99.90;;;;;;4988959;28;20973;-58
2023/06/23 07:51:11;;;;;;;12.10;11.00;;;18.40;99.90;;;;;;4994623;28;20573;-58
2023/06/23 07:53:39;;;;;;;12.57;11.40;;;18.40;99.90;;;;;;4990774;28;20496;-58
2023/06/23 07:56:12;;;;;;;14.67;13.33;;;18.50;99.90;;;;;;4985834;28;20534;-58
2023/06/23 07:58:40;;;;;;;14.13;12.83;;;18.50;99.90;;;;;;4996791;28;20479;-58
2023/06/23 08:01:12;;;;;;;14.83;13.67;;;18.60;99.90;;;;;;4994124;28;20492;-58
2023/06/23 08:03:44;;;;;;;14.37;13.03;;;18.60;99.90;;;;;;4991043;28;20563;-58
2023/06/23 08:06:13;;;;;;;14.13;12.50;;;18.70;99.90;;;;;;4993271;28;20505;-57
2023/06/23 08:08:41;;;;;;;15.60;14.20;;;18.70;99.90;;;;;;4993956;28;20913;-58
2023/06/23 08:11:09;;;;;;;13.60;12.30;;;18.80;99.90;;;;;;4992135;28;20880;-58
2023/06/23 08:13:38;;;;;;;14.27;12.87;;;18.90;99.90;;;;;;4993357;28;20597;-58
2023/06/23 08:16:06;;;;;;;14.30;12.90;;;19.00;99.90;;;;;;4992457;28;20953;-58
2023/06/23 08:18:35;;;;;;;13.50;12.30;;;19.00;99.90;;;;;;4994573;28;20891;-58
2023/06/23 08:21:03;;;;;;;15.00;13.60;;;19.10;99.90;;;;;;4995367;28;20498;-58
2023/06/23 08:23:32;;;;;;;13.50;12.30;;;19.10;99.90;;;;;;4991194;28;21626;-58
2023/06/23 08:26:05;;;;;;;14.67;13.37;;;19.10;99.90;;;;;;4992904;28;20860;-59
2023/06/23 08:28:33;;;;;;;14.13;12.40;;;19.20;99.90;;;;;;4998555;28;20468;-58
2023/06/23 08:31:01;;;;;;;12.83;11.43;;;19.20;99.90;;;;;;4986349;28;20601;-59
2023/06/23 08:33:29;;;;;;;12.67;11.47;;;19.20;99.90;;;;;;4990796;28;20499;-58
2023/06/23 08:35:58;;;;;;;12.83;11.80;;;19.20;99.90;;;;;;4990781;28;20566;-59
2023/06/23 08:38:26;;;;;;;12.90;11.80;;;19.20;99.90;;;;;;4987643;28;20514;-58
2023/06/23 08:40:55;;;;;;;12.33;11.10;;;19.20;99.90;;;;;;4990730;28;21049;-59
2023/06/23 08:43:26;;;;;;;12.37;11.37;;;19.20;99.90;;;;;;4992712;28;20473;-58
2023/06/23 08:45:56;;;;;;;11.97;10.87;;;19.10;99.90;;;;;;4996010;28;20572;-59
2023/06/23 08:48:27;;;;;;;12.27;10.97;;;19.20;99.90;;;;;;4995471;28;20511;-58
2023/06/23 08:50:58;;;;;;;12.07;10.97;;;19.20;99.90;;;;;;4992644;28;20625;-58
2023/06/23 08:53:27;;;;;;;12.50;11.40;;;19.20;99.90;;;;;;4982992;28;20502;-58
2023/06/23 08:55:56;;;;;;;12.03;10.83;;;19.20;99.90;;;;;;4991193;28;20531;-59
2023/06/23 08:58:25;;;;;;;11.90;10.80;;;19.20;99.90;;;;;;4990909;28;20472;-59
2023/06/23 09:00:54;;;;;;;13.23;12.10;;;19.20;99.90;;;;;;4991332;28;20559;-58
2023/06/23 09:03:23;;;;;;;12.10;11.00;;;19.30;99.90;;;;;;4990628;28;20493;-58
2023/06/23 09:05:51;;;;;;;12.77;11.57;;;19.30;99.90;;;;;;5003878;28;20502;-58
2023/06/23 09:08:21;;;;;;;12.93;11.73;;;19.30;99.90;;;;;;5004542;28;20534;-59
2023/06/23 09:10:50;;;;;;;11.70;10.70;;;19.30;99.90;;;;;;4991602;28;20599;-58
2023/06/23 09:13:23;;;;;;;12.17;11.07;;;19.30;99.90;;;;;;4984445;28;20492;-58
2023/06/23 09:15:52;;;;;;;11.20;10.30;;;19.30;99.90;;;;;;4992598;28;21085;-58
2023/06/23 09:18:32;;;;;;;12.43;11.33;;;19.30;99.90;;;;;;4994934;28;20472;-59
2023/06/23 09:21:02;;;;;;;12.13;10.97;;;19.30;99.90;;;;;;4992091;28;21076;-58
2023/06/23 09:23:33;;;;;;;11.60;10.60;;;19.30;99.90;;;;;;4990958;28;20851;-58
2023/06/23 09:26:03;;;;;;;10.83;9.93;;;19.40;99.90;;;;;;4995394;28;20489;-58
2023/06/23 09:28:35;;;;;;;12.33;11.20;;;19.40;99.90;;;;;;4985559;28;20476;-58
2023/06/23 09:31:10;;;;;;;12.60;11.60;;;19.50;99.90;;;;;;4986579;28;20519;-58
2023/06/23 09:33:47;;;;;;;11.73;10.67;;;19.50;99.90;;;;;;4992764;28;20528;-59
2023/06/23 09:36:15;;;;;;;11.57;10.57;;;19.60;99.90;;;;;;4991540;28;20489;-58
2023/06/23 09:38:45;;;;;;;12.47;11.40;;;19.60;99.90;;;;;;4989470;28;20472;-58
2023/06/23 09:41:15;;;;;;;13.50;12.20;;;19.70;99.90;;;;;;4995212;28;20610;-58
2023/06/23 09:43:44;;;;;;;11.83;10.73;;;19.70;99.90;;;;;;4987867;28;20500;-58
2023/06/23 09:46:15;;;;;;;12.70;11.47;;;19.70;99.90;;;;;;4989886;28;20516;-58
2023/06/23 09:48:44;;;;;;;12.50;11.30;;;19.80;99.90;;;;;;4992541;28;20476;-58
2023/06/23 09:51:13;;;;;;;12.00;11.00;;;19.80;99.90;;;;;;4991778;28;21095;-58
2023/06/23 09:53:42;;;;;;;11.33;10.20;;;19.80;99.90;;;;;;4992115;28;20528;-58
2023/06/23 09:56:16;;;;;;;13.10;11.77;;;19.90;99.90;;;;;;4992831;28;20484;-58
2023/06/23 09:58:45;;;;;;;10.80;9.90;;;20.00;99.90;;;;;;4987239;28;20497;-58
2023/06/23 10:01:15;;;;;;;11.93;10.90;;;19.90;99.90;;;;;;4993407;28;20916;-58
2023/06/23 10:03:44;;;;;;;11.63;10.63;;;19.90;99.90;;;;;;4985433;28;20970;-58
2023/06/23 10:06:22;;;;;;;12.03;10.80;;;20.00;99.90;;;;;;4992598;28;20472;-58
2023/06/23 10:08:55;;;;;;;11.20;10.20;;;20.10;99.90;;;;;;4986681;28;20556;-58
2023/06/23 10:11:31;;;;;;;11.83;10.63;;;20.10;99.90;;;;;;4997055;28;20492;-58
2023/06/23 10:14:01;;;;;;;11.60;10.50;;;20.10;99.90;;;;;;4989446;28;21025;-59
2023/06/23 10:16:30;;;;;;;10.10;9.20;;;20.20;99.90;;;;;;4995188;28;20475;-58
2023/06/23 10:18:58;;;;;;;10.70;9.60;;;20.30;99.90;;;;;;4990561;28;20471;-59
2023/06/23 10:21:26;;;;;;;10.67;9.77;;;20.30;99.90;;;;;;4989781;28;20520;-58
2023/06/23 10:23:58;;;;;;;10.30;9.30;;;20.40;99.90;;;;;;4983446;28;20472;-59
2023/06/23 10:26:26;;;;;;;10.80;10.00;;;20.50;99.90;;;;;;4981535;28;20871;-58
2023/06/23 10:28:58;;;;;;;10.97;10.00;;;20.50;99.90;;;;;;4987229;28;20942;-59
2023/06/23 10:31:30;;;;;;;11.37;10.47;;;20.50;99.90;;;;;;4996519;28;21167;-59
2023/06/23 10:34:00;;;;;;;11.00;10.20;;;20.50;99.90;;;;;;4988697;28;20496;-59
2023/06/23 10:36:31;;;;;;;12.43;11.30;;;20.50;99.90;;;;;;4985393;28;20737;-59
2023/06/23 10:39:04;;;;;;;11.47;10.47;;;20.60;99.90;;;;;;4979824;28;21215;-57
2023/06/23 10:41:34;;;;;;;12.47;11.57;;;20.50;99.90;;;;;;4985423;28;20493;-58
2023/06/23 10:44:04;;;;;;;11.90;11.00;;;20.50;99.90;;;;;;4990804;28;21479;-59
2023/06/23 10:46:35;;;;;;;12.40;11.40;;;20.40;99.90;;;;;;4994810;28;20543;-58
2023/06/23 10:49:05;;;;;;;12.33;11.33;;;20.40;99.90;;;;;;4990740;28;20518;-58
2023/06/23 10:51:35;;;;;;;13.77;12.57;;;20.40;99.90;;;;;;4989783;28;20488;-58
2023/06/23 10:54:07;;;;;;;13.50;12.37;;;20.30;99.90;;;;;;4991539;28;20557;-57
2023/06/23 10:56:38;;;;;;;14.20;13.00;;;20.30;99.90;;;;;;4991300;28;21034;-58
2023/06/23 10:59:28;;;;;;;14.70;13.30;;;20.30;99.90;;;;;;4989796;28;20551;-59
2023/06/23 11:02:10;;;;;;;13.87;12.60;;;20.20;99.90;;;;;;4993213;28;21578;-59
2023/06/23 11:04:41;;;;;;;14.40;13.20;;;20.20;99.90;;;;;;4988975;28;20554;-58
2023/06/23 11:07:12;;;;;;;14.63;13.40;;;20.20;99.90;;;;;;4989291;28;21163;-59
2023/06/23 11:09:44;;;;;;;13.40;12.20;;;20.20;99.90;;;;;;4994970;28;20520;-59
2023/06/23 11:12:29;;;;;;;14.60;13.30;;;20.20;99.90;;;;;;4988125;28;20491;-59
2023/06/23 11:15:03;;;;;;;13.50;12.40;;;20.20;99.90;;;;;;4987711;28;20507;-58
2023/06/23 11:17:43;;;;;;;14.97;13.73;;;20.20;99.90;;;;;;4989658;28;20550;-58
2023/06/23 11:20:13;;;;;;;13.97;12.77;;;20.30;99.90;;;;;;4993316;28;20482;-59
2023/06/23 11:22:54;;;;;;;13.93;12.73;;;20.30;99.90;;;;;;4995933;28;20495;-58
2023/06/23 11:25:27;;;;;;;13.87;12.67;;;20.40;99.90;;;;;;4998658;28;20582;-59
2023/06/23 11:28:24;;;;;;;14.60;13.30;;;20.40;99.90;;;;;;4979019;28;20553;-58
2023/06/23 11:30:54;;;;;;;14.30;13.10;;;20.50;99.90;;;;;;4992892;28;20474;-58
2023/06/23 11:33:26;;;;;;;15.37;13.77;;;20.50;99.90;;;;;;4996084;28;20475;-59
2023/06/23 11:35:55;;;;;;;15.70;14.23;;;20.50;99.90;;;;;;4995369;28;21055;-58
2023/06/23 11:38:23;;;;;;;14.93;13.40;;;20.60;99.90;;;;;;4983134;28;21007;-58
2023/06/23 11:40:52;;;;;;;15.37;14.00;;;20.70;99.90;;;;;;4979110;28;20634;-57
2023/06/23 11:43:20;;;;;;;16.13;14.40;;;20.70;99.90;;;;;;4996432;28;20795;-59
2023/06/23 11:45:56;;;;;;;14.00;12.90;;;20.80;99.90;;;;;;4996415;28;20484;-61
2023/06/23 11:48:28;;;;;;;13.30;12.20;;;20.80;99.90;;;;;;4994113;28;20503;-58
2023/06/23 11:50:57;;;;;;;14.97;13.17;;;20.80;99.90;;;;;;4984516;28;20465;-59
2023/06/23 11:53:25;;;;;;;13.50;12.40;;;20.90;99.90;;;;;;4981303;28;20561;-59
2023/06/23 11:55:53;;;;;;;14.50;13.10;;;20.90;99.90;;;;;;4988895;28;20511;-58
2023/06/23 11:58:21;;;;;;;13.57;12.37;;;20.90;99.90;;;;;;4984289;28;23785;-58
2023/06/23 12:00:49;;;;;;;12.87;11.77;;;21.00;99.90;;;;;;4984948;28;20476;-59
2023/06/23 12:03:19;;;;;;;14.07;12.87;;;21.00;99.90;;;;;;4986078;28;20689;-58
2023/06/23 12:05:47;;;;;;;12.87;11.77;;;21.00;99.90;;;;;;4990050;28;21040;-58
2023/06/23 12:08:15;;;;;;;13.73;12.30;;;21.00;99.90;;;;;;4988878;28;20989;-58
2023/06/23 12:10:43;;;;;;;13.60;12.27;;;21.10;99.90;;;;;;4990692;28;20873;-59
2023/06/23 12:13:11;;;;;;;14.37;13.17;;;21.10;99.90;;;;;;4983177;28;20480;-59
2023/06/23 12:15:40;;;;;;;13.73;12.63;;;21.20;99.90;;;;;;4981855;28;21768;-59
2023/06/23 12:18:09;;;;;;;14.03;12.73;;;21.20;99.90;;;;;;4984991;28;20968;-59
2023/06/23 12:20:40;;;;;;;13.83;12.47;;;21.10;99.90;;;;;;4981345;28;20624;-58
2023/06/23 12:23:10;;;;;;;11.63;10.60;;;21.20;99.90;;;;;;4989807;28;20496;-58
2023/06/23 12:25:40;;;;;;;13.33;12.23;;;21.20;99.90;;;;;;4989437;28;21309;-59
2023/06/23 12:28:12;;;;;;;14.03;12.73;;;21.20;99.90;;;;;;4984380;28;20563;-58
2023/06/23 12:30:43;;;;;;;11.83;10.83;;;21.30;99.90;;;;;;4995083;28;20504;-59
2023/06/23 12:33:14;;;;;;;13.57;12.33;;;21.30;99.90;;;;;;4987493;28;20583;-58
2023/06/23 12:35:55;;;;;;;11.97;10.87;;;21.40;99.90;;;;;;4992974;28;21069;-59
2023/06/23 12:38:23;;;;;;;12.50;11.40;;;21.50;99.90;;;;;;4995320;28;20567;-58
2023/06/23 12:40:52;;;;;;;12.83;11.63;;;21.60;99.90;;;;;;4987422;28;20515;-58
2023/06/23 12:43:20;;;;;;;14.03;12.63;;;21.60;99.90;;;;;;4992802;28;20908;-58
2023/06/23 12:45:49;;;;;;;11.33;10.33;;;21.60;99.90;;;;;;4993252;28;20554;-59
2023/06/23 12:48:21;;;;;;;12.30;11.30;;;21.70;99.90;;;;;;4996894;28;20504;-59
2023/06/23 12:50:54;;;;;;;11.97;10.97;;;21.70;99.90;;;;;;4998055;28;20477;-59
2023/06/23 12:53:22;;;;;;;11.60;10.53;;;21.70;99.90;;;;;;4993508;28;20480;-59
2023/06/23 12:55:50;;;;;;;11.27;10.20;;;21.80;99.90;;;;;;4995357;28;20501;-58